Time;durP1;ratioP1;P1;durP2;ratioP2;P2;SDS_P1;SDS_P2;PMS_P1;PMS_P2;Temp;Humidity;BMP_temperature;BMP_pressure;BME280_temperature;BME280_humidity;BME280_pressure;Samples;Min_cycle;Max_cycle;Signal;HPM_P1;HPM_P2
2023/08/17 00:00:13;;;;;;;11.73;8.55;;;;;;;;;;618194;23;1292;-80
2023/08/17 00:00:29;;;;;;;13.88;8.70;;;;;;;;;;621101;23;891;-80
2023/08/17 00:00:45;;;;;;;16.10;9.60;;;;;;;;;;621310;23;832;-79
2023/08/17 00:01:01;;;;;;;14.88;9.52;;;;;;;;;;617967;23;1515;-79
2023/08/17 00:01:16;;;;;;;13.90;9.27;;;;;;;;;;617600;23;1131;-79
2023/08/17 00:01:32;;;;;;;14.80;9.73;;;;;;;;;;621081;23;1353;-80
2023/08/17 00:01:48;;;;;;;16.10;9.57;;;;;;;;;;620335;23;1219;-80
2023/08/17 00:02:04;;;;;;;15.95;9.52;;;;;;;;;;620482;23;1327;-80
2023/08/17 00:02:20;;;;;;;16.33;9.82;;;;;;;;;;620719;23;1532;-80
2023/08/17 00:02:35;;;;;;;18.20;9.90;;;;;;;;;;621160;23;1269;-80
2023/08/17 00:02:51;;;;;;;16.77;9.35;;;;;;;;;;618266;23;1357;-79
2023/08/17 00:03:10;;;;;;;15.60;8.77;;;;;;;;;;615067;23;1482;-79
2023/08/17 00:03:26;;;;;;;15.60;9.35;;;;;;;;;;615174;23;1423;-79
2023/08/17 00:03:41;;;;;;;15.65;9.70;;;;;;;;;;615217;23;1432;-79
2023/08/17 00:04:00;;;;;;;16.37;9.70;;;;;;;;;;614757;23;1934;-79
2023/08/17 00:04:16;;;;;;;17.05;9.90;;;;;;;;;;614780;23;1286;-80
2023/08/17 00:04:32;;;;;;;16.02;10.02;;;;;;;;;;617916;23;1326;-80
2023/08/17 00:04:47;;;;;;;18.00;10.18;;;;;;;;;;620773;23;1103;-80
2023/08/17 00:05:03;;;;;;;17.98;10.35;;;;;;;;;;618407;23;1418;-80
2023/08/17 00:05:19;;;;;;;14.02;9.73;;;;;;;;;;618006;23;1486;-80
2023/08/17 00:05:35;;;;;;;15.87;9.70;;;;;;;;;;624028;23;1266;-80
2023/08/17 00:05:51;;;;;;;19.13;10.68;;;;;;;;;;624282;23;1355;-80
2023/08/17 00:06:07;;;;;;;17.92;10.27;;;;;;;;;;623854;23;1325;-80
2023/08/17 00:06:22;;;;;;;17.15;10.00;;;;;;;;;;617875;23;1396;-80
2023/08/17 00:06:38;;;;;;;15.80;9.93;;;;;;;;;;617961;23;1366;-80
2023/08/17 00:06:54;;;;;;;15.77;9.73;;;;;;;;;;618091;23;1226;-80
2023/08/17 00:07:10;;;;;;;17.52;10.32;;;;;;;;;;617918;23;868;-79
2023/08/17 00:07:26;;;;;;;16.58;9.98;;;;;;;;;;614610;23;1181;-80
2023/08/17 00:07:41;;;;;;;15.55;9.57;;;;;;;;;;615028;23;1377;-80
2023/08/17 00:07:57;;;;;;;14.67;9.60;;;;;;;;;;617743;23;1226;-79
2023/08/17 00:08:13;;;;;;;14.07;9.30;;;;;;;;;;621059;23;1538;-79
2023/08/17 00:08:28;;;;;;;16.90;9.57;;;;;;;;;;621091;23;827;-80
2023/08/17 00:08:44;;;;;;;18.40;10.00;;;;;;;;;;618969;23;1417;-79
2023/08/17 00:09:00;;;;;;;14.00;8.95;;;;;;;;;;618018;23;1300;-79
2023/08/17 00:09:16;;;;;;;13.30;8.80;;;;;;;;;;617802;23;1268;-80
2023/08/17 00:09:32;;;;;;;16.35;9.48;;;;;;;;;;617834;23;1215;-80
2023/08/17 00:09:48;;;;;;;16.30;9.43;;;;;;;;;;615062;23;1510;-79
2023/08/17 00:10:03;;;;;;;15.15;9.48;;;;;;;;;;614770;23;1462;-80
2023/08/17 00:10:19;;;;;;;13.93;8.77;;;;;;;;;;618191;23;1196;-79
2023/08/17 00:10:35;;;;;;;11.95;7.80;;;;;;;;;;618230;23;1434;-79
2023/08/17 00:10:51;;;;;;;14.15;8.73;;;;;;;;;;621333;23;1280;-79
2023/08/17 00:11:09;;;;;;;17.65;9.98;;;;;;;;;;615293;23;1495;-80
2023/08/17 00:11:25;;;;;;;17.27;10.13;;;;;;;;;;615284;23;1624;-79
2023/08/17 00:11:43;;;;;;;16.90;10.20;;;;;;;;;;618061;23;1281;-80
2023/08/17 00:11:59;;;;;;;17.30;10.20;;;;;;;;;;621001;23;1441;-80
2023/08/17 00:12:18;;;;;;;17.88;10.20;;;;;;;;;;618172;23;1226;-80
2023/08/17 00:12:36;;;;;;;18.08;10.52;;;;;;;;;;621150;23;1276;-80
2023/08/17 00:12:52;;;;;;;18.20;9.95;;;;;;;;;;620856;23;1321;-79
2023/08/17 00:13:08;;;;;;;18.35;9.90;;;;;;;;;;621577;23;776;-80
2023/08/17 00:13:24;;;;;;;18.20;10.15;;;;;;;;;;621134;23;1209;-79
2023/08/17 00:13:39;;;;;;;17.70;10.50;;;;;;;;;;620827;23;1518;-79
2023/08/17 00:13:55;;;;;;;19.45;10.77;;;;;;;;;;620943;23;1266;-79
2023/08/17 00:14:11;;;;;;;19.05;10.88;;;;;;;;;;617890;23;1344;-79
2023/08/17 00:14:26;;;;;;;17.70;10.53;;;;;;;;;;614773;23;1350;-79
2023/08/17 00:14:42;;;;;;;16.23;10.10;;;;;;;;;;617700;23;1395;-79
2023/08/17 00:14:58;;;;;;;15.00;9.93;;;;;;;;;;617866;23;1217;-79
2023/08/17 00:15:14;;;;;;;16.85;10.13;;;;;;;;;;614682;23;1243;-80
2023/08/17 00:15:29;;;;;;;17.43;10.23;;;;;;;;;;617973;23;1256;-80
2023/08/17 00:15:45;;;;;;;16.90;10.63;;;;;;;;;;618224;23;1474;-79
2023/08/17 00:16:01;;;;;;;16.92;10.80;;;;;;;;;;618096;23;1264;-79
2023/08/17 00:16:17;;;;;;;17.75;10.52;;;;;;;;;;618023;23;1319;-80
2023/08/17 00:16:33;;;;;;;20.17;11.00;;;;;;;;;;618469;23;1368;-79
2023/08/17 00:16:51;;;;;;;19.52;11.15;;;;;;;;;;618125;23;1352;-79
2023/08/17 00:17:07;;;;;;;17.70;10.68;;;;;;;;;;614755;23;1004;-79
2023/08/17 00:17:23;;;;;;;16.92;10.38;;;;;;;;;;615079;23;1342;-80
2023/08/17 00:17:38;;;;;;;17.37;10.90;;;;;;;;;;617365;23;1380;-80
2023/08/17 00:17:54;;;;;;;17.88;11.00;;;;;;;;;;617836;23;1211;-79
2023/08/17 00:18:10;;;;;;;18.63;10.82;;;;;;;;;;617383;23;800;-79
2023/08/17 00:18:26;;;;;;;19.43;11.20;;;;;;;;;;618227;23;1220;-79
2023/08/17 00:18:42;;;;;;;18.42;11.02;;;;;;;;;;617578;23;1391;-79
2023/08/17 00:18:58;;;;;;;19.20;10.95;;;;;;;;;;618243;23;1222;-80
2023/08/17 00:19:14;;;;;;;18.83;10.80;;;;;;;;;;617799;23;1399;-79
2023/08/17 00:19:30;;;;;;;17.98;10.77;;;;;;;;;;620641;23;1507;-79
2023/08/17 00:19:45;;;;;;;19.10;11.00;;;;;;;;;;620817;23;1210;-79
2023/08/17 00:20:04;;;;;;;19.33;11.05;;;;;;;;;;620724;23;908;-79
2023/08/17 00:20:20;;;;;;;18.83;11.23;;;;;;;;;;624186;23;1275;-80
2023/08/17 00:20:36;;;;;;;18.98;11.07;;;;;;;;;;623597;23;824;-79
2023/08/17 00:20:52;;;;;;;19.10;10.80;;;;;;;;;;619286;23;1249;-80
2023/08/17 00:21:07;;;;;;;17.25;10.18;;;;;;;;;;619670;23;876;-80
2023/08/17 00:21:23;;;;;;;19.00;10.43;;;;;;;;;;622347;23;1228;-80
2023/08/17 00:21:39;;;;;;;20.95;11.07;;;;;;;;;;625594;23;848;-79
2023/08/17 00:21:55;;;;;;;19.67;10.80;;;;;;;;;;626784;23;1419;-79
2023/08/17 00:22:11;;;;;;;17.83;10.90;;;;;;;;;;623344;23;1425;-80
2023/08/17 00:22:27;;;;;;;17.30;10.90;;;;;;;;;;620659;23;1268;-79
2023/08/17 00:22:42;;;;;;;18.55;10.95;;;;;;;;;;620785;23;1494;-79
2023/08/17 00:22:58;;;;;;;19.73;11.15;;;;;;;;;;620167;23;1399;-79
2023/08/17 00:23:14;;;;;;;20.02;11.10;;;;;;;;;;620291;23;1296;-79
2023/08/17 00:23:30;;;;;;;20.93;11.47;;;;;;;;;;623808;23;1257;-80
2023/08/17 00:23:46;;;;;;;19.45;11.38;;;;;;;;;;620753;23;1203;-80
2023/08/17 00:24:01;;;;;;;19.05;11.13;;;;;;;;;;620911;23;1379;-79
2023/08/17 00:24:17;;;;;;;18.87;11.20;;;;;;;;;;617800;23;1185;-79
2023/08/17 00:24:32;;;;;;;19.05;11.13;;;;;;;;;;623711;23;1363;-80
2023/08/17 00:24:48;;;;;;;19.95;11.68;;;;;;;;;;623411;23;1241;-80
2023/08/17 00:25:04;;;;;;;20.10;12.07;;;;;;;;;;620600;23;1244;-80
2023/08/17 00:25:20;;;;;;;18.33;11.38;;;;;;;;;;620789;23;1367;-80
2023/08/17 00:25:36;;;;;;;12.18;9.13;;;;;;;;;;620554;23;967;-79
2023/08/17 00:25:54;;;;;;;9.18;7.88;;;;;;;;;;620590;23;1541;-80
2023/08/17 00:26:10;;;;;;;9.52;8.30;;;;;;;;;;621099;23;1194;-80
2023/08/17 00:26:27;;;;;;;10.77;8.27;;;;;;;;;;615109;23;1385;-79
2023/08/17 00:26:46;;;;;;;11.18;8.20;;;;;;;;;;618284;23;1363;-80
2023/08/17 00:27:03;;;;;;;10.57;8.00;;;;;;;;;;624069;23;1391;-80
2023/08/17 00:27:19;;;;;;;10.90;8.10;;;;;;;;;;623491;23;1473;-80
2023/08/17 00:27:35;;;;;;;10.57;7.90;;;;;;;;;;620545;23;1429;-80
2023/08/17 00:27:50;;;;;;;9.23;7.50;;;;;;;;;;620544;23;843;-79
2023/08/17 00:28:06;;;;;;;12.23;8.60;;;;;;;;;;623674;23;1214;-79
2023/08/17 00:28:22;;;;;;;14.97;9.67;;;;;;;;;;620389;23;1233;-80
2023/08/17 00:28:37;;;;;;;12.65;8.38;;;;;;;;;;618385;23;1245;-79
2023/08/17 00:28:56;;;;;;;9.63;7.47;;;;;;;;;;612313;24;1408;-79
2023/08/17 00:29:14;;;;;;;9.43;7.72;;;;;;;;;;618277;23;1329;-80
2023/08/17 00:29:30;;;;;;;9.98;7.72;;;;;;;;;;621212;23;1300;-79
2023/08/17 00:29:49;;;;;;;8.70;7.13;;;;;;;;;;617489;23;1397;-79
2023/08/17 00:30:05;;;;;;;8.60;7.05;;;;;;;;;;620608;23;1500;-79
2023/08/17 00:30:21;;;;;;;9.18;7.32;;;;;;;;;;620716;23;1374;-79
2023/08/17 00:30:37;;;;;;;10.07;7.78;;;;;;;;;;623755;23;1276;-80
2023/08/17 00:30:53;;;;;;;10.27;7.97;;;;;;;;;;617585;23;1573;-79
2023/08/17 00:31:08;;;;;;;12.27;8.52;;;;;;;;;;615221;23;1213;-80
2023/08/17 00:31:24;;;;;;;14.70;9.10;;;;;;;;;;620847;23;1159;-80
2023/08/17 00:31:40;;;;;;;15.33;9.20;;;;;;;;;;621118;23;1355;-79
2023/08/17 00:31:56;;;;;;;15.40;9.40;;;;;;;;;;621181;23;940;-80
2023/08/17 00:32:12;;;;;;;15.82;9.23;;;;;;;;;;618184;23;1302;-79
2023/08/17 00:32:27;;;;;;;12.30;8.38;;;;;;;;;;620502;23;1301;-79
2023/08/17 00:32:43;;;;;;;11.40;8.40;;;;;;;;;;620585;23;1354;-79
2023/08/17 00:32:59;;;;;;;13.70;9.03;;;;;;;;;;615040;23;1268;-79
2023/08/17 00:33:14;;;;;;;15.20;9.73;;;;;;;;;;617761;23;1161;-80
2023/08/17 00:33:30;;;;;;;15.20;10.03;;;;;;;;;;620748;23;1226;-80
2023/08/17 00:33:46;;;;;;;14.70;10.07;;;;;;;;;;624087;23;1213;-79
2023/08/17 00:34:02;;;;;;;15.50;10.30;;;;;;;;;;620924;23;1324;-80
2023/08/17 00:34:18;;;;;;;18.27;10.93;;;;;;;;;;623996;23;1217;-79
2023/08/17 00:34:33;;;;;;;20.80;11.00;;;;;;;;;;623790;23;1569;-80
2023/08/17 00:34:49;;;;;;;21.60;11.40;;;;;;;;;;620911;23;1257;-79
2023/08/17 00:35:05;;;;;;;20.15;11.30;;;;;;;;;;623581;23;1122;-79
2023/08/17 00:35:21;;;;;;;17.67;10.75;;;;;;;;;;623775;23;1293;-79
2023/08/17 00:35:37;;;;;;;20.13;10.90;;;;;;;;;;623508;23;1339;-79
2023/08/17 00:35:53;;;;;;;21.52;11.30;;;;;;;;;;624048;23;1375;-80
2023/08/17 00:36:09;;;;;;;19.43;11.53;;;;;;;;;;623739;23;1341;-80
2023/08/17 00:36:24;;;;;;;20.02;11.48;;;;;;;;;;620919;23;1129;-80
2023/08/17 00:36:40;;;;;;;20.20;11.40;;;;;;;;;;621021;23;1518;-79
2023/08/17 00:36:56;;;;;;;20.23;11.55;;;;;;;;;;620614;23;1287;-79
2023/08/17 00:37:12;;;;;;;19.60;11.32;;;;;;;;;;621030;23;1491;-80
2023/08/17 00:37:27;;;;;;;18.83;11.32;;;;;;;;;;621099;23;1324;-79
2023/08/17 00:37:43;;;;;;;19.87;11.77;;;;;;;;;;620567;23;1132;-80
2023/08/17 00:38:00;;;;;;;21.05;11.88;;;;;;;;;;623914;23;1220;-79
2023/08/17 00:38:15;;;;;;;20.27;11.70;;;;;;;;;;620716;23;1348;-79
2023/08/17 00:38:31;;;;;;;20.90;11.77;;;;;;;;;;617913;23;1175;-79
2023/08/17 00:38:47;;;;;;;21.77;11.82;;;;;;;;;;620783;23;1265;-80
2023/08/17 00:39:03;;;;;;;20.00;11.73;;;;;;;;;;620841;23;1272;-80
2023/08/17 00:39:19;;;;;;;18.48;11.60;;;;;;;;;;621033;23;1328;-80
2023/08/17 00:39:35;;;;;;;19.20;11.38;;;;;;;;;;623922;23;1284;-80
2023/08/17 00:40:11;;;;;;;18.50;10.82;;;;;;;;;;623855;23;1200;-79
2023/08/17 00:40:27;;;;;;;19.13;10.88;;;;;;;;;;620167;23;1416;-79
2023/08/17 00:40:43;;;;;;;19.73;11.63;;;;;;;;;;620315;23;1330;-79
2023/08/17 00:40:59;;;;;;;17.58;10.65;;;;;;;;;;617629;23;1458;-79
2023/08/17 00:41:14;;;;;;;16.20;10.03;;;;;;;;;;615139;23;1352;-80
2023/08/17 00:41:33;;;;;;;17.02;10.88;;;;;;;;;;618020;23;1230;-80
2023/08/17 00:41:51;;;;;;;18.60;11.40;;;;;;;;;;618011;23;1327;-79
2023/08/17 00:42:08;;;;;;;19.77;10.88;;;;;;;;;;615115;23;1253;-80
2023/08/17 00:42:23;;;;;;;19.73;10.48;;;;;;;;;;615153;23;816;-80
2023/08/17 00:42:39;;;;;;;21.90;11.35;;;;;;;;;;617810;23;1450;-80
2023/08/17 00:42:54;;;;;;;21.13;11.27;;;;;;;;;;620653;23;1239;-79
2023/08/17 00:43:10;;;;;;;18.35;10.68;;;;;;;;;;623646;23;1394;-80
2023/08/17 00:43:27;;;;;;;19.65;10.85;;;;;;;;;;620546;23;1277;-79
2023/08/17 00:43:42;;;;;;;21.27;11.30;;;;;;;;;;623584;23;1325;-79
2023/08/17 00:43:59;;;;;;;22.02;11.23;;;;;;;;;;620050;23;1943;-79
2023/08/17 00:44:15;;;;;;;20.92;11.27;;;;;;;;;;621112;23;1397;-79
2023/08/17 00:44:31;;;;;;;20.57;11.40;;;;;;;;;;614903;23;1367;-79
2023/08/17 00:44:46;;;;;;;20.80;11.55;;;;;;;;;;617862;23;1388;-79
2023/08/17 00:45:08;;;;;;;21.55;11.30;;;;;;;;;;617735;23;1265;-80
2023/08/17 00:45:24;;;;;;;18.00;10.82;;;;;;;;;;614574;23;1272;-80
2023/08/17 00:45:41;;;;;;;17.95;10.90;;;;;;;;;;617504;23;1328;-79
2023/08/17 00:45:56;;;;;;;19.60;11.50;;;;;;;;;;620524;23;1196;-80
2023/08/17 00:46:12;;;;;;;18.23;11.23;;;;;;;;;;620731;23;1253;-79
2023/08/17 00:46:29;;;;;;;18.40;11.25;;;;;;;;;;617850;23;1364;-78
2023/08/17 00:47:05;;;;;;;20.38;11.73;;;;;;;;;;621369;23;1534;-79
2023/08/17 00:47:21;;;;;;;20.73;11.27;;;;;;;;;;623410;23;1485;-80
2023/08/17 00:47:37;;;;;;;20.00;11.40;;;;;;;;;;624072;23;915;-79
2023/08/17 00:47:57;;;;;;;20.25;11.27;;;;;;;;;;623995;23;1556;-79
2023/08/17 00:48:14;;;;;;;18.85;10.68;;;;;;;;;;623684;23;1450;-79
2023/08/17 00:48:33;;;;;;;20.90;11.10;;;;;;;;;;623446;23;1320;-80
2023/08/17 00:48:50;;;;;;;19.65;10.82;;;;;;;;;;620829;23;1415;-80
2023/08/17 00:49:06;;;;;;;16.00;10.43;;;;;;;;;;620652;23;813;-79
2023/08/17 00:49:22;;;;;;;13.27;9.07;;;;;;;;;;624024;23;1283;-79
2023/08/17 00:49:38;;;;;;;13.45;9.23;;;;;;;;;;621006;23;1365;-79
2023/08/17 00:49:54;;;;;;;12.73;9.00;;;;;;;;;;621088;23;1335;-79
2023/08/17 00:50:11;;;;;;;10.35;7.72;;;;;;;;;;620980;23;1310;-79
2023/08/17 00:50:28;;;;;;;11.15;8.30;;;;;;;;;;621165;23;1262;-79
2023/08/17 00:50:48;;;;;;;12.60;9.18;;;;;;;;;;618218;23;1012;-80
2023/08/17 00:51:05;;;;;;;13.82;9.27;;;;;;;;;;614916;23;1531;-79
2023/08/17 00:51:24;;;;;;;13.43;8.88;;;;;;;;;;615315;23;875;-80
2023/08/17 00:51:40;;;;;;;11.13;7.78;;;;;;;;;;614298;23;1357;-80
2023/08/17 00:51:56;;;;;;;8.77;7.10;;;;;;;;;;614782;23;998;-79
2023/08/17 00:52:11;;;;;;;11.60;8.25;;;;;;;;;;615304;23;1270;-79
2023/08/17 00:52:28;;;;;;;16.15;9.57;;;;;;;;;;615088;23;1206;-80
2023/08/17 00:52:44;;;;;;;18.05;10.27;;;;;;;;;;617930;23;797;-79
2023/08/17 00:53:00;;;;;;;18.25;10.60;;;;;;;;;;618045;23;1495;-79
2023/08/17 00:53:17;;;;;;;14.38;9.45;;;;;;;;;;617722;23;1354;-79
2023/08/17 00:53:33;;;;;;;11.15;8.18;;;;;;;;;;620585;23;1351;-80
2023/08/17 00:53:48;;;;;;;11.43;8.20;;;;;;;;;;623286;23;1198;-79
2023/08/17 00:54:04;;;;;;;12.03;8.60;;;;;;;;;;620807;23;1421;-79
2023/08/17 00:54:24;;;;;;;11.45;8.07;;;;;;;;;;620709;23;1262;-79
2023/08/17 00:55:00;;;;;;;10.18;7.60;;;;;;;;;;621044;23;1288;-79
2023/08/17 00:55:16;;;;;;;13.60;9.23;;;;;;;;;;620489;23;1399;-79
2023/08/17 00:55:33;;;;;;;16.50;10.10;;;;;;;;;;621219;23;1411;-79
2023/08/17 00:55:50;;;;;;;16.77;10.18;;;;;;;;;;618129;23;1367;-79
2023/08/17 00:56:05;;;;;;;16.90;9.98;;;;;;;;;;617311;23;1224;-79
2023/08/17 00:56:22;;;;;;;16.67;10.00;;;;;;;;;;618079;23;1010;-79
2023/08/17 00:56:40;;;;;;;15.48;9.95;;;;;;;;;;615106;23;1543;-79
2023/08/17 00:56:56;;;;;;;17.83;10.18;;;;;;;;;;614588;23;1336;-79
2023/08/17 00:57:13;;;;;;;18.75;10.13;;;;;;;;;;615168;23;1188;-80
2023/08/17 00:57:29;;;;;;;16.98;10.20;;;;;;;;;;615392;23;1049;-79
2023/08/17 00:57:45;;;;;;;15.55;10.20;;;;;;;;;;612555;23;1301;-80
2023/08/17 00:58:01;;;;;;;16.37;10.30;;;;;;;;;;615538;23;1270;-79
2023/08/17 00:58:17;;;;;;;18.27;10.48;;;;;;;;;;615138;23;1276;-79
2023/08/17 00:58:32;;;;;;;17.30;10.48;;;;;;;;;;617764;23;1194;-80
2023/08/17 00:58:49;;;;;;;17.40;10.70;;;;;;;;;;620470;23;1076;-80
2023/08/17 00:59:05;;;;;;;18.35;10.80;;;;;;;;;;617860;23;1328;-80
2023/08/17 00:59:22;;;;;;;17.45;10.98;;;;;;;;;;617901;23;1351;-79
2023/08/17 00:59:38;;;;;;;18.83;11.57;;;;;;;;;;620981;23;1183;-79
2023/08/17 00:59:54;;;;;;;19.77;11.60;;;;;;;;;;618429;23;1236;-79
2023/08/17 01:00:14;;;;;;;20.57;11.40;;;;;;;;;;615313;23;1021;-80
2023/08/17 01:00:31;;;;;;;19.50;10.73;;;;;;;;;;615103;23;1341;-79
2023/08/17 01:00:48;;;;;;;16.63;9.75;;;;;;;;;;615389;23;1384;-80
2023/08/17 01:01:04;;;;;;;14.95;9.13;;;;;;;;;;612307;23;1132;-80
2023/08/17 01:01:20;;;;;;;13.97;9.10;;;;;;;;;;614936;23;1305;-80
2023/08/17 01:01:36;;;;;;;15.25;9.55;;;;;;;;;;617767;23;1436;-79
2023/08/17 01:01:53;;;;;;;17.40;10.40;;;;;;;;;;617673;23;863;-79
2023/08/17 01:02:09;;;;;;;13.52;9.30;;;;;;;;;;617328;23;1462;-80
2023/08/17 01:02:25;;;;;;;15.88;9.85;;;;;;;;;;620995;23;1192;-79
2023/08/17 01:02:42;;;;;;;19.05;10.70;;;;;;;;;;617687;23;1628;-79
2023/08/17 01:02:58;;;;;;;17.48;10.77;;;;;;;;;;619753;23;896;-79
2023/08/17 01:03:15;;;;;;;14.93;10.00;;;;;;;;;;618146;23;1603;-80
2023/08/17 01:03:32;;;;;;;12.23;8.75;;;;;;;;;;615189;23;1610;-79
2023/08/17 01:03:47;;;;;;;14.38;9.70;;;;;;;;;;612123;23;1321;-80
2023/08/17 01:04:04;;;;;;;18.13;10.67;;;;;;;;;;614804;23;1232;-79
2023/08/17 01:04:19;;;;;;;19.05;10.90;;;;;;;;;;615206;23;860;-80
2023/08/17 01:04:35;;;;;;;16.90;10.02;;;;;;;;;;613356;23;1413;-81
2023/08/17 01:04:52;;;;;;;15.95;9.80;;;;;;;;;;611943;23;1235;-80
2023/08/17 01:05:08;;;;;;;15.90;10.30;;;;;;;;;;615519;23;1309;-80
2023/08/17 01:05:24;;;;;;;17.55;11.10;;;;;;;;;;616650;23;896;-79
2023/08/17 01:05:40;;;;;;;18.17;11.27;;;;;;;;;;616256;23;1499;-79
2023/08/17 01:05:57;;;;;;;18.33;11.10;;;;;;;;;;618179;23;816;-79
2023/08/17 01:06:13;;;;;;;15.68;10.05;;;;;;;;;;614836;23;1362;-80
2023/08/17 01:06:28;;;;;;;14.38;9.27;;;;;;;;;;613458;23;1460;-79
2023/08/17 01:06:44;;;;;;;13.82;9.18;;;;;;;;;;616073;23;915;-79
2023/08/17 01:07:00;;;;;;;14.80;9.68;;;;;;;;;;615897;23;1236;-80
2023/08/17 01:07:16;;;;;;;17.65;10.98;;;;;;;;;;617638;23;1249;-80
2023/08/17 01:07:32;;;;;;;17.80;10.97;;;;;;;;;;618214;23;1433;-79
2023/08/17 01:07:48;;;;;;;19.40;11.13;;;;;;;;;;618463;23;1305;-80
2023/08/17 01:08:04;;;;;;;19.58;11.18;;;;;;;;;;619271;23;841;-80
2023/08/17 01:08:20;;;;;;;18.40;10.65;;;;;;;;;;619233;23;1335;-79
2023/08/17 01:08:37;;;;;;;15.65;9.95;;;;;;;;;;621080;23;1271;-80
2023/08/17 01:08:54;;;;;;;15.45;9.63;;;;;;;;;;623617;23;1461;-79
2023/08/17 01:09:12;;;;;;;18.83;10.43;;;;;;;;;;623787;23;1351;-79
2023/08/17 01:09:28;;;;;;;19.23;10.95;;;;;;;;;;617805;23;1358;-79
2023/08/17 01:09:44;;;;;;;17.75;10.75;;;;;;;;;;620644;23;1389;-80
2023/08/17 01:10:09;;;;;;;14.43;9.80;;;;;;;;;;620619;23;1206;-79
2023/08/17 01:10:54;;;;;;;15.90;10.45;;;;;;;;;;617930;23;1203;-79
2023/08/17 01:11:24;;;;;;;16.27;10.25;;;;;;;;;;620599;23;1423;-80
2023/08/17 01:11:49;;;;;;;18.52;10.95;;;;;;;;;;623460;23;1169;-80
2023/08/17 01:12:19;;;;;;;18.42;10.93;;;;;;;;;;623264;23;1360;-79
2023/08/17 01:12:41;;;;;;;15.00;10.27;;;;;;;;;;620117;23;1421;-79
2023/08/17 01:13:09;;;;;;;19.05;11.43;;;;;;;;;;621275;23;1449;-80
2023/08/17 01:13:35;;;;;;;17.20;10.25;;;;;;;;;;624204;23;798;-79
2023/08/17 01:14:04;;;;;;;20.52;11.75;;;;;;;;;;621016;23;1395;-79
2023/08/17 01:14:30;;;;;;;19.73;11.75;;;;;;;;;;623422;23;1638;-79
2023/08/17 01:14:49;;;;;;;17.08;10.20;;;;;;;;;;621213;23;1128;-79
2023/08/17 01:15:22;;;;;;;15.88;9.93;;;;;;;;;;623733;23;1288;-80
2023/08/17 01:15:44;;;;;;;19.13;10.73;;;;;;;;;;623936;23;890;-79
2023/08/17 01:16:03;;;;;;;20.55;11.50;;;;;;;;;;623542;23;1687;-79
2023/08/17 01:16:35;;;;;;;19.55;11.80;;;;;;;;;;620910;23;1280;-79
2023/08/17 01:17:14;;;;;;;22.88;12.15;;;;;;;;;;620356;23;899;-79
2023/08/17 01:17:39;;;;;;;20.92;12.63;;;;;;;;;;623553;23;1342;-80
2023/08/17 01:18:11;;;;;;;20.13;11.73;;;;;;;;;;623756;23;890;-80
2023/08/17 01:18:33;;;;;;;21.50;11.82;;;;;;;;;;623969;23;1240;-79
2023/08/17 01:18:51;;;;;;;19.95;11.57;;;;;;;;;;620450;23;1283;-79
2023/08/17 01:19:12;;;;;;;21.73;11.75;;;;;;;;;;620805;23;1567;-80
2023/08/17 01:19:28;;;;;;;22.10;12.00;;;;;;;;;;620015;23;1395;-79
2023/08/17 01:19:45;;;;;;;22.38;12.35;;;;;;;;;;617951;23;1442;-80
2023/08/17 01:20:03;;;;;;;21.55;12.38;;;;;;;;;;614844;23;1434;-79
2023/08/17 01:20:20;;;;;;;21.98;12.15;;;;;;;;;;614904;23;1376;-80
2023/08/17 01:20:37;;;;;;;20.60;11.85;;;;;;;;;;615432;23;1290;-80
2023/08/17 01:20:53;;;;;;;19.45;11.52;;;;;;;;;;618184;23;1586;-80
2023/08/17 01:21:13;;;;;;;19.42;11.13;;;;;;;;;;621131;23;1368;-80
2023/08/17 01:21:39;;;;;;;19.63;11.60;;;;;;;;;;621085;23;1283;-80
2023/08/17 01:22:03;;;;;;;21.80;12.30;;;;;;;;;;620841;23;1286;-80
2023/08/17 01:22:22;;;;;;;23.25;12.45;;;;;;;;;;620703;23;1393;-81
2023/08/17 01:22:41;;;;;;;23.05;12.35;;;;;;;;;;620655;23;1388;-79
2023/08/17 01:23:18;;;;;;;22.80;12.40;;;;;;;;;;617605;23;1435;-79
2023/08/17 01:23:34;;;;;;;20.58;11.88;;;;;;;;;;618020;23;1482;-80
2023/08/17 01:23:51;;;;;;;20.83;12.40;;;;;;;;;;616931;23;1993;-80
2023/08/17 01:24:07;;;;;;;14.85;10.27;;;;;;;;;;618238;23;1345;-80
2023/08/17 01:24:42;;;;;;;11.52;8.45;;;;;;;;;;617674;23;1392;-79
2023/08/17 01:24:58;;;;;;;11.93;9.05;;;;;;;;;;622757;23;1253;-79
2023/08/17 01:25:14;;;;;;;12.27;8.68;;;;;;;;;;620639;23;1260;-79
2023/08/17 01:25:30;;;;;;;13.23;9.25;;;;;;;;;;623862;23;1347;-80
2023/08/17 01:25:49;;;;;;;11.70;8.82;;;;;;;;;;623825;23;1335;-80
2023/08/17 01:26:05;;;;;;;9.85;8.30;;;;;;;;;;618144;23;1440;-80
2023/08/17 01:26:20;;;;;;;11.73;8.90;;;;;;;;;;614978;23;1018;-80
2023/08/17 01:26:36;;;;;;;11.05;8.45;;;;;;;;;;618122;23;1376;-80
2023/08/17 01:26:52;;;;;;;9.48;8.13;;;;;;;;;;615003;23;1323;-79
2023/08/17 01:27:10;;;;;;;11.30;8.33;;;;;;;;;;617668;23;1190;-80
2023/08/17 01:27:26;;;;;;;11.57;8.20;;;;;;;;;;614971;23;1302;-80
2023/08/17 01:27:45;;;;;;;12.35;8.73;;;;;;;;;;614605;23;1366;-80
2023/08/17 01:28:00;;;;;;;15.65;10.32;;;;;;;;;;615153;23;1253;-80
2023/08/17 01:28:16;;;;;;;17.30;10.63;;;;;;;;;;617559;23;1163;-79
2023/08/17 01:28:32;;;;;;;16.63;9.95;;;;;;;;;;618617;23;1285;-79
2023/08/17 01:28:48;;;;;;;16.30;9.68;;;;;;;;;;619908;23;996;-79
2023/08/17 01:29:04;;;;;;;17.57;10.20;;;;;;;;;;620751;23;1240;-80
2023/08/17 01:29:20;;;;;;;17.05;10.30;;;;;;;;;;620620;23;1482;-79
2023/08/17 01:29:35;;;;;;;15.98;10.23;;;;;;;;;;620417;23;1232;-80
2023/08/17 01:29:52;;;;;;;15.23;10.27;;;;;;;;;;620892;23;840;-79
2023/08/17 01:30:10;;;;;;;13.68;9.65;;;;;;;;;;622170;23;1243;-79
2023/08/17 01:30:55;;;;;;;13.85;9.13;;;;;;;;;;622390;23;1331;-79
2023/08/17 01:31:36;;;;;;;17.17;10.07;;;;;;;;;;620887;23;1141;-80
2023/08/17 01:32:03;;;;;;;12.73;9.15;;;;;;;;;;621061;23;1335;-79
2023/08/17 01:32:29;;;;;;;16.40;10.00;;;;;;;;;;618908;23;1435;-79
2023/08/17 01:33:09;;;;;;;19.65;10.05;;;;;;;;;;617517;23;1375;-80
2023/08/17 01:33:31;;;;;;;14.20;9.65;;;;;;;;;;620369;23;1316;-78
2023/08/17 01:33:52;;;;;;;15.48;9.63;;;;;;;;;;619840;23;1487;-79
2023/08/17 01:34:10;;;;;;;16.83;10.07;;;;;;;;;;620835;23;891;-79
2023/08/17 01:34:29;;;;;;;14.23;9.35;;;;;;;;;;620320;23;1436;-79
2023/08/17 01:35:01;;;;;;;14.43;9.30;;;;;;;;;;617289;23;1301;-78
2023/08/17 01:35:57;;;;;;;18.05;10.02;;;;;;;;;;617086;23;1389;-79
2023/08/17 01:36:15;;;;;;;19.42;10.52;;;;;;;;;;620363;23;1350;-79
2023/08/17 01:36:39;;;;;;;13.70;8.80;;;;;;;;;;623287;23;1339;-79
2023/08/17 01:36:59;;;;;;;15.23;9.60;;;;;;;;;;623452;23;1398;-80
2023/08/17 01:37:19;;;;;;;15.60;9.95;;;;;;;;;;623263;23;1337;-79
2023/08/17 01:37:40;;;;;;;17.75;10.13;;;;;;;;;;622779;23;1523;-80
2023/08/17 01:38:05;;;;;;;18.88;10.50;;;;;;;;;;623042;23;875;-78
2023/08/17 01:38:23;;;;;;;18.05;10.90;;;;;;;;;;620727;23;1237;-79
2023/08/17 01:38:40;;;;;;;18.63;11.35;;;;;;;;;;622988;23;1344;-79
2023/08/17 01:38:57;;;;;;;16.58;10.77;;;;;;;;;;620574;23;1336;-79
2023/08/17 01:39:16;;;;;;;15.60;10.43;;;;;;;;;;620448;23;824;-80
2023/08/17 01:39:37;;;;;;;17.77;11.32;;;;;;;;;;620268;23;1299;-79
2023/08/17 01:39:56;;;;;;;17.10;10.82;;;;;;;;;;617338;23;1517;-79
2023/08/17 01:40:14;;;;;;;17.35;11.27;;;;;;;;;;614167;23;1518;-79
2023/08/17 01:40:32;;;;;;;17.20;11.07;;;;;;;;;;615255;23;1301;-78
2023/08/17 01:40:53;;;;;;;18.08;11.00;;;;;;;;;;615301;23;1530;-79
2023/08/17 01:41:13;;;;;;;18.50;11.38;;;;;;;;;;617538;23;1378;-79
2023/08/17 01:41:30;;;;;;;17.85;11.38;;;;;;;;;;614820;23;1346;-79
2023/08/17 01:41:47;;;;;;;17.02;11.05;;;;;;;;;;617379;23;1384;-79
2023/08/17 01:42:05;;;;;;;18.83;11.57;;;;;;;;;;617172;23;1432;-79
2023/08/17 01:42:41;;;;;;;20.58;11.68;;;;;;;;;;617655;23;1341;-80
2023/08/17 01:43:18;;;;;;;18.10;11.82;;;;;;;;;;617792;23;828;-79
2023/08/17 01:44:17;;;;;;;14.50;10.65;;;;;;;;;;619689;23;1415;-79
2023/08/17 01:44:33;;;;;;;21.67;12.50;;;;;;;;;;626570;23;1422;-79
2023/08/17 01:44:50;;;;;;;19.33;12.25;;;;;;;;;;626970;23;1280;-78
2023/08/17 01:45:06;;;;;;;15.73;10.70;;;;;;;;;;623926;23;1558;-78
2023/08/17 01:45:22;;;;;;;16.92;10.98;;;;;;;;;;623406;23;886;-78
2023/08/17 01:45:38;;;;;;;21.40;12.15;;;;;;;;;;623088;23;1486;-79
2023/08/17 01:45:54;;;;;;;20.13;11.55;;;;;;;;;;620378;23;1300;-78
2023/08/17 01:46:16;;;;;;;15.83;10.83;;;;;;;;;;617436;23;1294;-78
2023/08/17 01:46:33;;;;;;;15.45;10.15;;;;;;;;;;614384;23;1302;-78
2023/08/17 01:46:49;;;;;;;16.92;10.50;;;;;;;;;;617748;23;1456;-78
2023/08/17 01:47:05;;;;;;;19.00;11.70;;;;;;;;;;617812;23;1443;-78
2023/08/17 01:47:22;;;;;;;18.60;11.52;;;;;;;;;;620772;23;1371;-77
2023/08/17 01:47:38;;;;;;;19.05;11.70;;;;;;;;;;620771;23;1300;-77
2023/08/17 01:47:55;;;;;;;17.77;10.98;;;;;;;;;;620297;23;1260;-78
2023/08/17 01:48:14;;;;;;;13.50;9.32;;;;;;;;;;620605;23;1470;-77
2023/08/17 01:48:29;;;;;;;14.90;9.95;;;;;;;;;;620414;23;1335;-77
2023/08/17 01:48:46;;;;;;;18.53;11.27;;;;;;;;;;617183;23;1344;-77
2023/08/17 01:49:02;;;;;;;19.13;11.25;;;;;;;;;;617353;23;1371;-77
2023/08/17 01:49:18;;;;;;;16.10;10.55;;;;;;;;;;620519;23;1372;-78
2023/08/17 01:49:33;;;;;;;15.52;10.30;;;;;;;;;;623520;23;1276;-77